sensor_id;sensor_type;location;lat;lon;timestamp;P1;durP1;ratioP1;P2;durP2;ratioP2
65822;SDS011;52585;47.566;19.056;2022-10-30T15:59:50;24.90;;;14.70;;
65822;SDS011;52585;47.566;19.056;2022-10-30T16:02:21;19.30;;;13.10;;
65822;SDS011;52585;47.566;19.056;2022-10-30T16:04:48;20.40;;;12.90;;
65822;SDS011;52585;47.566;19.056;2022-10-30T16:07:21;21.50;;;12.50;;
65822;SDS011;52585;47.566;19.056;2022-10-30T16:09:58;20.10;;;12.40;;
65822;SDS011;52585;47.566;19.056;2022-10-30T16:12:32;17.20;;;11.40;;
65822;SDS011;52585;47.566;19.056;2022-10-30T16:15:03;14.50;;;10.90;;
65822;SDS011;52585;47.566;19.056;2022-10-30T16:17:31;14.60;;;10.80;;
65822;SDS011;52585;47.566;19.056;2022-10-30T16:20:01;15.00;;;11.20;;
65822;SDS011;52585;47.566;19.056;2022-10-30T16:22:38;13.70;;;11.20;;
65822;SDS011;52585;47.566;19.056;2022-10-30T16:25:08;16.80;;;10.40;;
65822;SDS011;52585;47.566;19.056;2022-10-30T16:27:44;15.90;;;10.50;;
65822;SDS011;52585;47.566;19.056;2022-10-30T16:30:13;15.20;;;9.90;;
65822;SDS011;52585;47.566;19.056;2022-10-30T16:32:43;15.00;;;10.10;;
65822;SDS011;52585;47.566;19.056;2022-10-30T16:35:18;13.30;;;9.80;;
65822;SDS011;52585;47.566;19.056;2022-10-30T16:37:47;15.90;;;11.10;;
65822;SDS011;52585;47.566;19.056;2022-10-30T16:40:17;16.40;;;10.50;;
65822;SDS011;52585;47.566;19.056;2022-10-30T16:43:17;15.20;;;9.70;;
65822;SDS011;52585;47.566;19.056;2022-10-30T16:45:53;15.10;;;11.10;;
65822;SDS011;52585;47.566;19.056;2022-10-30T16:48:24;16.60;;;11.10;;
65822;SDS011;52585;47.566;19.056;2022-10-30T16:50:58;15.20;;;10.40;;
65822;SDS011;52585;47.566;19.056;2022-10-30T16:53:26;15.50;;;10.50;;
65822;SDS011;52585;47.566;19.056;2022-10-30T16:55:54;14.70;;;11.20;;
65822;SDS011;52585;47.566;19.056;2022-10-30T16:58:24;15.80;;;11.00;;
65822;SDS011;52585;47.566;19.056;2022-10-30T17:01:01;15.40;;;10.90;;
65822;SDS011;52585;47.566;19.056;2022-10-30T17:03:34;15.30;;;10.80;;
65822;SDS011;52585;47.566;19.056;2022-10-30T17:06:06;18.50;;;12.40;;
65822;SDS011;52585;47.566;19.056;2022-10-30T17:08:59;21.40;;;13.60;;
65822;SDS011;52585;47.566;19.056;2022-10-30T17:12:02;19.50;;;13.40;;
65822;SDS011;52585;47.566;19.056;2022-10-30T17:14:28;20.40;;;13.80;;
65822;SDS011;52585;47.566;19.056;2022-10-30T17:17:23;19.20;;;14.30;;
65822;SDS011;52585;47.566;19.056;2022-10-30T17:20:41;19.80;;;13.00;;
65822;SDS011;52585;47.566;19.056;2022-10-30T17:22:45;28.20;;;14.10;;
65822;SDS011;52585;47.566;19.056;2022-10-30T17:25:17;16.80;;;12.50;;
65822;SDS011;52585;47.566;19.056;2022-10-30T17:27:54;19.30;;;13.10;;
65822;SDS011;52585;47.566;19.056;2022-10-30T17:30:37;22.50;;;14.20;;
65822;SDS011;52585;47.566;19.056;2022-10-30T17:33:29;23.50;;;13.60;;
65822;SDS011;52585;47.566;19.056;2022-10-30T17:35:59;32.20;;;14.60;;
65822;SDS011;52585;47.566;19.056;2022-10-30T17:40:41;34.30;;;14.10;;
65822;SDS011;52585;47.566;19.056;2022-10-30T17:43:13;20.60;;;13.40;;
65822;SDS011;52585;47.566;19.056;2022-10-30T17:45:41;21.70;;;14.20;;
65822;SDS011;52585;47.566;19.056;2022-10-30T17:48:16;21.10;;;14.30;;
65822;SDS011;52585;47.566;19.056;2022-10-30T17:50:43;19.80;;;13.70;;
65822;SDS011;52585;47.566;19.056;2022-10-30T17:53:14;21.20;;;13.40;;
65822;SDS011;52585;47.566;19.056;2022-10-30T17:58:10;135.80;;;22.90;;
65822;SDS011;52585;47.566;19.056;2022-10-30T18:00:35;53.30;;;15.60;;
65822;SDS011;52585;47.566;19.056;2022-10-30T18:03:01;51.50;;;16.40;;
65822;SDS011;52585;47.566;19.056;2022-10-30T18:05:29;31.80;;;15.60;;
65822;SDS011;52585;47.566;19.056;2022-10-30T18:07:57;22.40;;;14.90;;
65822;SDS011;52585;47.566;19.056;2022-10-30T18:10:22;24.40;;;14.90;;
65822;SDS011;52585;47.566;19.056;2022-10-30T18:12:48;31.00;;;14.70;;
65822;SDS011;52585;47.566;19.056;2022-10-30T18:15:35;24.00;;;14.10;;
65822;SDS011;52585;47.566;19.056;2022-10-30T18:18:05;22.10;;;13.70;;
65822;SDS011;52585;47.566;19.056;2022-10-30T18:20:31;22.90;;;14.70;;
65822;SDS011;52585;47.566;19.056;2022-10-30T18:22:58;23.70;;;15.40;;
65822;SDS011;52585;47.566;19.056;2022-10-30T18:25:27;21.70;;;14.80;;
65822;SDS011;52585;47.566;19.056;2022-10-30T18:27:56;21.50;;;14.10;;
65822;SDS011;52585;47.566;19.056;2022-10-30T18:30:22;25.10;;;14.90;;
65822;SDS011;52585;47.566;19.056;2022-10-30T18:32:49;21.20;;;14.30;;
65822;SDS011;52585;47.566;19.056;2022-10-30T18:35:17;20.70;;;13.60;;
65822;SDS011;52585;47.566;19.056;2022-10-30T18:37:50;24.40;;;15.10;;
65822;SDS011;52585;47.566;19.056;2022-10-30T18:40:15;22.60;;;15.40;;
65822;SDS011;52585;47.566;19.056;2022-10-30T18:42:41;21.90;;;15.10;;
65822;SDS011;52585;47.566;19.056;2022-10-30T18:45:27;20.90;;;14.80;;
65822;SDS011;52585;47.566;19.056;2022-10-30T18:47:57;20.50;;;14.10;;
65822;SDS011;52585;47.566;19.056;2022-10-30T18:50:25;21.10;;;15.10;;
65822;SDS011;52585;47.566;19.056;2022-10-30T18:52:54;23.30;;;14.80;;
65822;SDS011;52585;47.566;19.056;2022-10-30T18:58:00;21.20;;;14.40;;
65822;SDS011;52585;47.566;19.056;2022-10-30T19:00:26;21.50;;;14.20;;
65822;SDS011;52585;47.566;19.056;2022-10-30T19:02:57;21.80;;;14.60;;
65822;SDS011;52585;47.566;19.056;2022-10-30T19:05:30;22.20;;;15.50;;
65822;SDS011;52585;47.566;19.056;2022-10-30T19:08:02;23.80;;;15.70;;
65822;SDS011;52585;47.566;19.056;2022-10-30T19:10:30;26.00;;;16.30;;
65822;SDS011;52585;47.566;19.056;2022-10-30T19:12:59;25.00;;;15.80;;
65822;SDS011;52585;47.566;19.056;2022-10-30T19:15:32;26.90;;;16.30;;
65822;SDS011;52585;47.566;19.056;2022-10-30T19:18:00;27.30;;;16.30;;
65822;SDS011;52585;47.566;19.056;2022-10-30T19:20:28;25.30;;;15.60;;
65822;SDS011;52585;47.566;19.056;2022-10-30T19:22:55;23.10;;;16.30;;
65822;SDS011;52585;47.566;19.056;2022-10-30T19:25:22;20.40;;;14.20;;
65822;SDS011;52585;47.566;19.056;2022-10-30T19:27:49;24.60;;;15.90;;
65822;SDS011;52585;47.566;19.056;2022-10-30T19:30:16;27.60;;;16.10;;
65822;SDS011;52585;47.566;19.056;2022-10-30T19:32:43;21.40;;;15.00;;
65822;SDS011;52585;47.566;19.056;2022-10-30T19:35:10;24.60;;;16.90;;
65822;SDS011;52585;47.566;19.056;2022-10-30T19:37:37;28.50;;;17.10;;
65822;SDS011;52585;47.566;19.056;2022-10-30T19:40:27;24.40;;;15.50;;
65822;SDS011;52585;47.566;19.056;2022-10-30T19:42:56;23.00;;;15.00;;
65822;SDS011;52585;47.566;19.056;2022-10-30T19:45:24;23.30;;;16.30;;
65822;SDS011;52585;47.566;19.056;2022-10-30T19:47:53;21.60;;;15.30;;
65822;SDS011;52585;47.566;19.056;2022-10-30T19:50:28;24.70;;;15.90;;
65822;SDS011;52585;47.566;19.056;2022-10-30T19:52:58;24.60;;;16.40;;
65822;SDS011;52585;47.566;19.056;2022-10-30T19:55:26;24.00;;;15.40;;
65822;SDS011;52585;47.566;19.056;2022-10-30T19:57:55;24.10;;;15.10;;
65822;SDS011;52585;47.566;19.056;2022-10-30T20:00:25;23.00;;;15.10;;
65822;SDS011;52585;47.566;19.056;2022-10-30T20:02:54;21.60;;;16.10;;
65822;SDS011;52585;47.566;19.056;2022-10-30T20:05:23;21.90;;;14.90;;
65822;SDS011;52585;47.566;19.056;2022-10-30T20:08:02;22.30;;;15.30;;
65822;SDS011;52585;47.566;19.056;2022-10-30T20:10:35;21.40;;;14.80;;
65822;SDS011;52585;47.566;19.056;2022-10-30T20:13:06;23.90;;;14.30;;
65822;SDS011;52585;47.566;19.056;2022-10-30T20:15:34;18.20;;;13.40;;
65822;SDS011;52585;47.566;19.056;2022-10-30T20:18:01;21.40;;;14.20;;
65822;SDS011;52585;47.566;19.056;2022-10-30T20:20:33;21.90;;;14.00;;
65822;SDS011;52585;47.566;19.056;2022-10-30T20:22:59;21.70;;;13.70;;
65822;SDS011;52585;47.566;19.056;2022-10-30T20:25:26;22.60;;;13.70;;
65822;SDS011;52585;47.566;19.056;2022-10-30T20:27:58;17.20;;;12.70;;
65822;SDS011;52585;47.566;19.056;2022-10-30T20:30:26;20.50;;;13.60;;
65822;SDS011;52585;47.566;19.056;2022-10-30T20:32:52;18.60;;;13.10;;
65822;SDS011;52585;47.566;19.056;2022-10-30T20:35:19;19.20;;;13.00;;
65822;SDS011;52585;47.566;19.056;2022-10-30T20:37:59;17.90;;;13.00;;
65822;SDS011;52585;47.566;19.056;2022-10-30T20:40:27;22.40;;;13.70;;
65822;SDS011;52585;47.566;19.056;2022-10-30T20:42:55;20.30;;;13.50;;
65822;SDS011;52585;47.566;19.056;2022-10-30T20:45:25;21.10;;;13.20;;
65822;SDS011;52585;47.566;19.056;2022-10-30T20:47:52;20.30;;;14.10;;
65822;SDS011;52585;47.566;19.056;2022-10-30T20:50:19;21.40;;;13.80;;
65822;SDS011;52585;47.566;19.056;2022-10-30T20:52:46;22.40;;;14.60;;
65822;SDS011;52585;47.566;19.056;2022-10-30T20:55:12;22.80;;;14.10;;
65822;SDS011;52585;47.566;19.056;2022-10-30T20:57:39;19.00;;;14.00;;
65822;SDS011;52585;47.566;19.056;2022-10-30T21:00:06;19.60;;;13.80;;
65822;SDS011;52585;47.566;19.056;2022-10-30T21:02:33;17.40;;;13.40;;
65822;SDS011;52585;47.566;19.056;2022-10-30T21:04:59;20.70;;;13.30;;
65822;SDS011;52585;47.566;19.056;2022-10-30T21:07:26;20.40;;;14.60;;
65822;SDS011;52585;47.566;19.056;2022-10-30T21:09:51;21.50;;;14.10;;
65822;SDS011;52585;47.566;19.056;2022-10-30T21:12:18;19.90;;;14.80;;
65822;SDS011;52585;47.566;19.056;2022-10-30T21:14:44;23.40;;;14.50;;
65822;SDS011;52585;47.566;19.056;2022-10-30T21:17:10;24.30;;;15.40;;
65822;SDS011;52585;47.566;19.056;2022-10-30T21:19:36;21.20;;;14.60;;
65822;SDS011;52585;47.566;19.056;2022-10-30T21:22:01;23.00;;;14.50;;
65822;SDS011;52585;47.566;19.056;2022-10-30T21:24:27;20.80;;;14.50;;
65822;SDS011;52585;47.566;19.056;2022-10-30T21:26:52;22.00;;;14.60;;
65822;SDS011;52585;47.566;19.056;2022-10-30T21:29:18;24.10;;;14.70;;
65822;SDS011;52585;47.566;19.056;2022-10-30T21:31:43;19.80;;;14.20;;
65822;SDS011;52585;47.566;19.056;2022-10-30T21:34:09;23.50;;;14.90;;
65822;SDS011;52585;47.566;19.056;2022-10-30T21:36:34;24.30;;;15.00;;
65822;SDS011;52585;47.566;19.056;2022-10-30T21:39:00;25.10;;;15.30;;
65822;SDS011;52585;47.566;19.056;2022-10-30T21:41:26;22.80;;;15.40;;
65822;SDS011;52585;47.566;19.056;2022-10-30T21:43:56;23.90;;;15.40;;
65822;SDS011;52585;47.566;19.056;2022-10-30T21:46:25;24.10;;;15.30;;
65822;SDS011;52585;47.566;19.056;2022-10-30T21:48:53;21.40;;;15.70;;
65822;SDS011;52585;47.566;19.056;2022-10-30T21:51:25;22.20;;;14.40;;
65822;SDS011;52585;47.566;19.056;2022-10-30T21:53:52;25.80;;;15.20;;
65822;SDS011;52585;47.566;19.056;2022-10-30T21:56:20;21.70;;;14.80;;
65822;SDS011;52585;47.566;19.056;2022-10-30T21:58:49;21.30;;;14.80;;
65822;SDS011;52585;47.566;19.056;2022-10-30T22:01:23;27.80;;;15.10;;
65822;SDS011;52585;47.566;19.056;2022-10-30T22:03:50;27.60;;;15.30;;
65822;SDS011;52585;47.566;19.056;2022-10-30T22:06:17;24.80;;;14.80;;
65822;SDS011;52585;47.566;19.056;2022-10-30T22:08:46;20.90;;;13.90;;
65822;SDS011;52585;47.566;19.056;2022-10-30T22:11:16;20.70;;;14.50;;
65822;SDS011;52585;47.566;19.056;2022-10-30T22:13:43;24.20;;;14.40;;
65822;SDS011;52585;47.566;19.056;2022-10-30T22:16:11;20.80;;;14.30;;
65822;SDS011;52585;47.566;19.056;2022-10-30T22:18:38;18.60;;;13.70;;
65822;SDS011;52585;47.566;19.056;2022-10-30T22:21:06;19.20;;;13.40;;
65822;SDS011;52585;47.566;19.056;2022-10-30T22:23:35;22.40;;;14.50;;
65822;SDS011;52585;47.566;19.056;2022-10-30T22:26:04;19.30;;;13.40;;
65822;SDS011;52585;47.566;19.056;2022-10-30T22:28:32;20.70;;;13.20;;
65822;SDS011;52585;47.566;19.056;2022-10-30T22:31:10;21.40;;;12.90;;
65822;SDS011;52585;47.566;19.056;2022-10-30T22:33:41;20.30;;;13.70;;
65822;SDS011;52585;47.566;19.056;2022-10-30T22:36:19;20.20;;;13.60;;
65822;SDS011;52585;47.566;19.056;2022-10-30T22:39:16;18.20;;;13.40;;
65822;SDS011;52585;47.566;19.056;2022-10-30T22:41:41;20.10;;;13.00;;
65822;SDS011;52585;47.566;19.056;2022-10-30T22:44:10;22.00;;;13.30;;
65822;SDS011;52585;47.566;19.056;2022-10-30T22:46:38;19.20;;;13.60;;
65822;SDS011;52585;47.566;19.056;2022-10-30T22:49:05;18.50;;;13.60;;
65822;SDS011;52585;47.566;19.056;2022-10-30T22:51:33;19.40;;;13.40;;
65822;SDS011;52585;47.566;19.056;2022-10-30T22:54:01;19.80;;;13.50;;
65822;SDS011;52585;47.566;19.056;2022-10-30T22:56:30;22.80;;;14.60;;
65822;SDS011;52585;47.566;19.056;2022-10-30T22:59:00;23.70;;;14.00;;
65822;SDS011;52585;47.566;19.056;2022-10-30T23:01:29;21.70;;;14.50;;
65822;SDS011;52585;47.566;19.056;2022-10-30T23:03:58;20.80;;;14.60;;
65822;SDS011;52585;47.566;19.056;2022-10-30T23:06:26;23.10;;;14.20;;
65822;SDS011;52585;47.566;19.056;2022-10-30T23:08:55;21.80;;;14.80;;
65822;SDS011;52585;47.566;19.056;2022-10-30T23:11:23;21.60;;;14.10;;
65822;SDS011;52585;47.566;19.056;2022-10-30T23:13:49;26.40;;;14.80;;
65822;SDS011;52585;47.566;19.056;2022-10-30T23:16:17;23.80;;;15.00;;
65822;SDS011;52585;47.566;19.056;2022-10-30T23:18:46;23.90;;;15.60;;
65822;SDS011;52585;47.566;19.056;2022-10-30T23:21:15;22.90;;;15.60;;
65822;SDS011;52585;47.566;19.056;2022-10-30T23:23:42;23.50;;;15.60;;
65822;SDS011;52585;47.566;19.056;2022-10-30T23:26:12;23.20;;;15.00;;
65822;SDS011;52585;47.566;19.056;2022-10-30T23:28:39;21.90;;;15.10;;
65822;SDS011;52585;47.566;19.056;2022-10-30T23:31:07;25.90;;;15.70;;
65822;SDS011;52585;47.566;19.056;2022-10-30T23:33:34;23.90;;;15.80;;
65822;SDS011;52585;47.566;19.056;2022-10-30T23:36:00;24.00;;;15.00;;
65822;SDS011;52585;47.566;19.056;2022-10-30T23:38:27;27.00;;;16.40;;
65822;SDS011;52585;47.566;19.056;2022-10-30T23:40:53;25.50;;;16.60;;
65822;SDS011;52585;47.566;19.056;2022-10-30T23:43:19;25.90;;;16.40;;
65822;SDS011;52585;47.566;19.056;2022-10-30T23:45:44;25.90;;;16.70;;
65822;SDS011;52585;47.566;19.056;2022-10-30T23:48:10;26.00;;;15.80;;
65822;SDS011;52585;47.566;19.056;2022-10-30T23:50:35;28.00;;;16.80;;
65822;SDS011;52585;47.566;19.056;2022-10-30T23:53:01;25.00;;;16.30;;
65822;SDS011;52585;47.566;19.056;2022-10-30T23:55:28;25.80;;;16.20;;
65822;SDS011;52585;47.566;19.056;2022-10-30T23:57:54;28.70;;;17.00;;
